createdAt,value
2023-05-09T00:01:39.674Z,41.67
2023-05-09T00:06:43.067Z,41.96
2023-05-09T00:11:47.088Z,41.60
2023-05-09T00:16:50.964Z,41.66
2023-05-09T00:21:54.469Z,41.33
2023-05-09T00:26:57.260Z,41.51
2023-05-09T00:32:00.363Z,41.82
2023-05-09T00:37:03.455Z,41.83
2023-05-09T00:42:06.060Z,41.77
2023-05-09T00:47:08.892Z,41.92
2023-05-09T00:52:11.935Z,41.86
2023-05-09T00:57:15.136Z,41.83
2023-05-09T01:02:19.076Z,42.08
2023-05-09T01:07:49.029Z,41.92
2023-05-09T01:13:22.092Z,41.91
2023-05-09T01:19:05.325Z,42.07
2023-05-09T01:24:41.374Z,42.12
2023-05-09T01:29:47.498Z,42.09
2023-05-09T01:34:52.725Z,42.15
2023-05-09T01:39:59.611Z,42.31
2023-05-09T01:45:04.670Z,42.29
2023-05-09T01:50:11.411Z,42.12
2023-05-09T01:55:16.430Z,42.37
2023-05-09T02:00:20.545Z,42.32
2023-05-09T02:05:27.801Z,42.03
2023-05-09T02:10:31.900Z,42.25
2023-05-09T02:15:35.112Z,42.32
2023-05-09T02:20:37.986Z,42.44
2023-05-09T02:25:41.457Z,42.21
2023-05-09T02:30:47.701Z,42.37
2023-05-09T02:35:51.774Z,42.43
2023-05-09T02:40:54.607Z,42.45
2023-05-09T02:45:57.379Z,42.68
2023-05-09T02:51:00.310Z,42.59
2023-05-09T02:56:04.190Z,42.51
2023-05-09T03:01:07.019Z,42.19
2023-05-09T03:06:10.253Z,42.49
2023-05-09T03:11:13.200Z,42.63
2023-05-09T03:16:19.087Z,42.65
2023-05-09T03:21:22.338Z,42.65
2023-05-09T03:26:26.817Z,42.73
2023-05-09T03:31:31.013Z,42.69
2023-05-09T03:36:34.040Z,42.67
2023-05-09T03:41:38.159Z,42.46
2023-05-09T03:46:42.316Z,42.42
2023-05-09T03:51:45.489Z,42.09
2023-05-09T03:56:51.656Z,41.82
2023-05-09T04:01:54.900Z,41.82
2023-05-09T04:07:00.822Z,41.66
2023-05-09T04:12:04.107Z,41.07
2023-05-09T04:17:07.021Z,41.25
2023-05-09T04:22:09.881Z,40.56
2023-05-09T04:27:12.577Z,40.53
2023-05-09T04:32:17.878Z,40.32
2023-05-09T04:37:21.141Z,39.49
2023-05-09T04:42:23.871Z,39.33
2023-05-09T04:47:26.918Z,38.42
2023-05-09T04:52:29.534Z,37.94
2023-05-09T04:57:50.909Z,37.36
2023-05-09T05:02:53.794Z,37.33
2023-05-09T05:07:59.645Z,37.25
2023-05-09T05:13:08.167Z,37.35
2023-05-09T05:18:14.848Z,37.65
2023-05-09T05:23:35.892Z,37.49
2023-05-09T05:28:38.902Z,38.03
2023-05-09T05:33:42.595Z,38.01
2023-05-09T05:38:45.914Z,38.32
2023-05-09T05:43:48.852Z,38.02
2023-05-09T05:48:51.895Z,37.59
2023-05-09T05:53:54.880Z,37.60
2023-05-09T05:58:58.818Z,37.53
2023-05-09T06:04:01.556Z,37.01
2023-05-09T06:09:07.253Z,35.47
2023-05-09T06:14:11.422Z,34.81
2023-05-09T06:19:14.237Z,35.05
2023-05-09T06:24:31.892Z,35.07
2023-05-09T06:29:39.326Z,34.89
2023-05-09T06:34:43.346Z,34.01
2023-05-09T06:39:46.113Z,32.94
2023-05-09T06:44:48.936Z,31.11
2023-05-09T06:49:52.958Z,30.41
2023-05-09T06:54:55.685Z,29.99
2023-05-09T06:59:58.321Z,29.83
2023-05-09T07:05:01.419Z,29.57
2023-05-09T07:10:11.460Z,28.41
2023-05-09T07:15:22.777Z,28.04
2023-05-09T07:20:32.223Z,27.78
2023-05-09T07:25:35.096Z,28.35
2023-05-09T07:30:37.701Z,29.02
2023-05-09T07:35:41.483Z,28.27
2023-05-09T07:40:44.199Z,27.70
2023-05-09T07:45:47.436Z,26.66
2023-05-09T07:50:50.298Z,26.00
2023-05-09T07:55:53.273Z,25.50
2023-05-09T08:00:57.270Z,25.52
2023-05-09T08:06:00.244Z,25.71
2023-05-09T08:11:03.492Z,24.87
2023-05-09T08:16:06.215Z,24.56
2023-05-09T08:21:09.092Z,24.21
2023-05-09T08:26:11.884Z,23.67
2023-05-09T08:31:14.818Z,23.16
2023-05-09T08:36:17.638Z,22.34
2023-05-09T08:41:28.185Z,22.68
2023-05-09T08:46:37.206Z,23.72
2023-05-09T08:51:41.914Z,24.07
2023-05-09T08:56:45.220Z,23.59
2023-05-09T09:01:49.594Z,23.99
2023-05-09T09:06:54.299Z,25.02
2023-05-09T09:11:58.098Z,23.91
2023-05-09T09:17:00.945Z,24.20
2023-05-09T09:22:05.248Z,24.44
2023-05-09T09:27:08.795Z,24.35
2023-05-09T09:32:11.466Z,24.27
2023-05-09T09:37:23.512Z,23.91
2023-05-09T09:42:26.250Z,23.46
2023-05-09T09:47:35.781Z,22.86
2023-05-09T09:52:52.378Z,22.32
2023-05-09T09:57:55.694Z,21.83
2023-05-09T10:02:59.700Z,21.11
2023-05-09T10:08:04.840Z,21.76
2023-05-09T10:13:10.339Z,23.22
2023-05-09T10:18:20.317Z,22.83
2023-05-09T10:23:24.477Z,22.47
2023-05-09T10:28:36.592Z,21.75
2023-05-09T10:33:46.633Z,23.19
2023-05-09T10:38:51.079Z,24.06
2023-05-09T10:44:00.155Z,24.48
2023-05-09T10:49:03.621Z,24.89
2023-05-09T10:54:16.492Z,25.17
2023-05-09T10:59:38.043Z,24.87
2023-05-09T11:04:41.639Z,24.55
2023-05-09T11:10:11.621Z,25.59
2023-05-09T11:15:14.615Z,25.80
2023-05-09T11:20:17.431Z,26.17
2023-05-09T11:25:28.636Z,26.49
2023-05-09T11:30:42.878Z,26.61
2023-05-09T11:35:45.857Z,26.59
2023-05-09T11:40:49.087Z,26.60
2023-05-09T11:45:52.010Z,26.74
2023-05-09T11:50:54.732Z,26.96
2023-05-09T11:55:57.626Z,27.38
2023-05-09T12:01:02.110Z,27.65
2023-05-09T12:06:05.487Z,27.58
2023-05-09T12:11:10.097Z,27.60
2023-05-09T12:16:14.102Z,27.92
2023-05-09T12:21:17.772Z,28.38
2023-05-09T12:26:23.905Z,28.53
2023-05-09T12:31:26.880Z,28.61
2023-05-09T12:36:35.452Z,28.92
2023-05-09T12:42:00.463Z,29.04
2023-05-09T12:47:05.630Z,29.42
2023-05-09T12:52:18.680Z,29.30
2023-05-09T12:57:23.685Z,29.73
2023-05-09T13:02:35.291Z,29.66
2023-05-09T13:07:46.392Z,30.01
2023-05-09T13:12:50.276Z,29.91
2023-05-09T13:17:53.490Z,30.26
2023-05-09T13:22:56.393Z,30.44
2023-05-09T13:27:59.164Z,30.78
2023-05-09T13:33:16.594Z,30.78
2023-05-09T13:38:26.099Z,30.84
2023-05-09T13:43:28.776Z,31.13
2023-05-09T13:48:31.363Z,31.15
2023-05-09T13:53:35.042Z,30.83
2023-05-09T13:58:39.324Z,31.34
2023-05-09T14:03:42.229Z,31.84
2023-05-09T14:08:47.662Z,31.77
2023-05-09T14:13:50.486Z,31.77
2023-05-09T14:18:53.199Z,31.85
2023-05-09T14:23:57.743Z,31.99
2023-05-09T14:29:00.390Z,32.02
2023-05-09T14:34:05.038Z,31.75
2023-05-09T14:39:09.943Z,32.33
2023-05-09T14:44:13.490Z,32.30
2023-05-09T14:49:16.680Z,32.06
2023-05-09T14:54:19.797Z,32.16
2023-05-09T14:59:22.479Z,32.52
2023-05-09T15:04:28.552Z,32.56
2023-05-09T15:09:31.177Z,32.68
2023-05-09T15:14:33.931Z,33.21
2023-05-09T15:19:38.154Z,33.10
2023-05-09T15:24:44.520Z,33.19
2023-05-09T15:29:49.131Z,33.70
2023-05-09T15:34:52.151Z,33.46
2023-05-09T15:39:55.129Z,33.83
2023-05-09T15:44:59.878Z,34.24
2023-05-09T15:50:03.790Z,33.97
2023-05-09T15:55:08.925Z,34.19
2023-05-09T16:00:12.770Z,34.32
2023-05-09T16:05:56.013Z,34.47
2023-05-09T16:11:01.193Z,34.65
2023-05-09T16:16:04.449Z,34.97
2023-05-09T16:21:08.074Z,35.08
2023-05-09T16:26:12.489Z,35.39
2023-05-09T16:31:15.242Z,35.23
2023-05-09T16:36:18.306Z,35.51
2023-05-09T16:41:20.939Z,35.91
2023-05-09T16:46:24.324Z,35.84
2023-05-09T16:51:27.441Z,35.92
2023-05-09T16:56:30.365Z,35.97
2023-05-09T17:01:35.059Z,35.99
2023-05-09T17:07:03.997Z,36.05
2023-05-09T17:12:07.088Z,36.06
2023-05-09T17:17:09.873Z,36.05
2023-05-09T17:22:13.086Z,35.92
2023-05-09T17:27:16.177Z,35.63
2023-05-09T17:32:19.253Z,35.54
2023-05-09T17:37:22.021Z,35.33
2023-05-09T17:42:24.777Z,35.27
2023-05-09T17:47:27.870Z,35.30
2023-05-09T17:52:30.805Z,35.07
2023-05-09T17:57:33.600Z,34.99
2023-05-09T18:02:36.738Z,35.43
2023-05-09T18:07:40.876Z,35.61
2023-05-09T18:12:45.954Z,35.36
2023-05-09T18:17:50.569Z,35.21
2023-05-09T18:22:54.868Z,35.25
2023-05-09T18:27:57.536Z,34.76
2023-05-09T18:33:01.729Z,34.33
2023-05-09T18:38:04.917Z,34.21
2023-05-09T18:43:08.314Z,34.43
2023-05-09T18:48:12.331Z,34.19
2023-05-09T18:53:15.286Z,34.37
2023-05-09T18:58:18.157Z,34.67
2023-05-09T19:03:21.422Z,34.53
2023-05-09T19:08:24.260Z,34.23
2023-05-09T19:13:27.185Z,33.96
2023-05-09T19:18:30.332Z,33.98
2023-05-09T19:23:33.085Z,33.94
2023-05-09T19:28:35.939Z,33.80
2023-05-09T19:33:39.270Z,33.77
2023-05-09T19:38:41.973Z,34.15
2023-05-09T19:43:45.676Z,34.29
2023-05-09T19:48:48.823Z,34.60
2023-05-09T19:53:51.612Z,35.07
2023-05-09T19:58:55.098Z,35.40
2023-05-09T20:03:58.036Z,35.23
2023-05-09T20:09:00.923Z,35.81
2023-05-09T20:14:04.055Z,35.76
2023-05-09T20:19:07.892Z,36.00
2023-05-09T20:24:12.006Z,36.01
2023-05-09T20:29:14.864Z,36.29
2023-05-09T20:34:20.079Z,36.24
2023-05-09T20:39:23.398Z,36.62
2023-05-09T20:44:26.135Z,36.84
2023-05-09T20:49:28.892Z,36.67
2023-05-09T20:54:31.512Z,37.03
2023-05-09T20:59:34.345Z,37.19
2023-05-09T21:04:37.103Z,37.42
2023-05-09T21:09:40.068Z,37.36
2023-05-09T21:14:42.591Z,37.22
2023-05-09T21:19:45.942Z,37.12
2023-05-09T21:24:48.725Z,37.09
2023-05-09T21:29:52.559Z,36.85
2023-05-09T21:34:55.679Z,36.81
2023-05-09T21:39:58.513Z,37.06
2023-05-09T21:45:01.263Z,36.95
2023-05-09T21:50:05.805Z,37.12
2023-05-09T21:55:09.361Z,37.18
2023-05-09T22:00:15.469Z,37.06
2023-05-09T22:05:18.331Z,37.33
2023-05-09T22:10:21.146Z,36.68
2023-05-09T22:15:24.011Z,36.93
2023-05-09T22:20:27.121Z,37.07
2023-05-09T22:25:29.858Z,37.21
2023-05-09T22:30:32.550Z,37.42
2023-05-09T22:35:35.324Z,37.86
2023-05-09T22:40:38.197Z,38.16
2023-05-09T22:45:40.762Z,38.15
2023-05-09T22:50:43.354Z,38.46
2023-05-09T22:55:45.912Z,38.67
2023-05-09T23:00:48.663Z,38.79
2023-05-09T23:05:51.891Z,39.05
2023-05-09T23:10:54.671Z,39.19
2023-05-09T23:15:57.442Z,39.03
2023-05-09T23:21:00.186Z,39.16
2023-05-09T23:26:03.568Z,39.21
2023-05-09T23:31:06.618Z,39.13
2023-05-09T23:36:09.942Z,39.04
2023-05-09T23:41:12.962Z,39.37
2023-05-09T23:46:16.431Z,39.46
2023-05-09T23:51:20.756Z,39.96
2023-05-09T23:56:23.490Z,40.09
